sensor_id;sensor_type;location;lat;lon;timestamp;pressure;altitude;pressure_sealevel;temperature;humidity
36190;BME280;22232;50.914;13.858;2023-08-06T00:01:34;97054.53;;;15.28;100.00
36190;BME280;22232;50.914;13.858;2023-08-06T00:04:02;97040.84;;;15.25;100.00
36190;BME280;22232;50.914;13.858;2023-08-06T00:06:30;97036.50;;;15.34;100.00
36190;BME280;22232;50.914;13.858;2023-08-06T00:08:58;97033.25;;;15.37;100.00
36190;BME280;22232;50.914;13.858;2023-08-06T00:11:26;97024.88;;;15.38;100.00
36190;BME280;22232;50.914;13.858;2023-08-06T00:13:53;97018.47;;;15.34;100.00
36190;BME280;22232;50.914;13.858;2023-08-06T00:16:21;97018.72;;;15.38;100.00
36190;BME280;22232;50.914;13.858;2023-08-06T00:18:49;97015.00;;;15.34;100.00
36190;BME280;22232;50.914;13.858;2023-08-06T00:21:17;97020.84;;;15.41;100.00
36190;BME280;22232;50.914;13.858;2023-08-06T00:23:44;97017.63;;;15.39;100.00
36190;BME280;22232;50.914;13.858;2023-08-06T00:26:12;97025.97;;;15.37;100.00
36190;BME280;22232;50.914;13.858;2023-08-06T00:28:40;97023.84;;;15.34;100.00
36190;BME280;22232;50.914;13.858;2023-08-06T00:31:08;97035.41;;;15.30;100.00
36190;BME280;22232;50.914;13.858;2023-08-06T00:33:36;97023.91;;;15.24;100.00
36190;BME280;22232;50.914;13.858;2023-08-06T00:36:03;97026.09;;;15.22;100.00
36190;BME280;22232;50.914;13.858;2023-08-06T00:38:31;97021.78;;;15.21;100.00
36190;BME280;22232;50.914;13.858;2023-08-06T00:40:59;97020.72;;;15.22;100.00
36190;BME280;22232;50.914;13.858;2023-08-06T00:43:26;97012.41;;;15.19;100.00
36190;BME280;22232;50.914;13.858;2023-08-06T00:45:55;97012.72;;;15.12;100.00
36190;BME280;22232;50.914;13.858;2023-08-06T00:48:23;97011.13;;;15.11;100.00
36190;BME280;22232;50.914;13.858;2023-08-06T00:50:51;97012.97;;;15.16;100.00
36190;BME280;22232;50.914;13.858;2023-08-06T00:53:20;97005.75;;;15.11;100.00
36190;BME280;22232;50.914;13.858;2023-08-06T00:55:48;96993.66;;;15.13;100.00
36190;BME280;22232;50.914;13.858;2023-08-06T00:58:16;96990.97;;;15.08;100.00
36190;BME280;22232;50.914;13.858;2023-08-06T01:00:45;96986.97;;;15.06;100.00
36190;BME280;22232;50.914;13.858;2023-08-06T01:03:14;96986.16;;;15.05;100.00
36190;BME280;22232;50.914;13.858;2023-08-06T01:05:43;96979.75;;;15.06;100.00
36190;BME280;22232;50.914;13.858;2023-08-06T01:12:07;96968.91;;;14.77;100.00
36190;BME280;22232;50.914;13.858;2023-08-06T01:17:30;96957.22;;;14.58;100.00
36190;BME280;22232;50.914;13.858;2023-08-06T01:19:58;96947.03;;;14.50;100.00
36190;BME280;22232;50.914;13.858;2023-08-06T01:22:26;96938.75;;;14.41;100.00
36190;BME280;22232;50.914;13.858;2023-08-06T01:24:55;96931.56;;;14.31;100.00
36190;BME280;22232;50.914;13.858;2023-08-06T01:30:41;96927.03;;;14.27;100.00
36190;BME280;22232;50.914;13.858;2023-08-06T01:33:13;96921.94;;;14.25;100.00
36190;BME280;22232;50.914;13.858;2023-08-06T01:35:42;96920.84;;;14.26;100.00
36190;BME280;22232;50.914;13.858;2023-08-06T01:38:10;96919.78;;;14.27;100.00
36190;BME280;22232;50.914;13.858;2023-08-06T01:40:38;96925.13;;;14.32;100.00
36190;BME280;22232;50.914;13.858;2023-08-06T01:43:06;96922.09;;;14.44;100.00
36190;BME280;22232;50.914;13.858;2023-08-06T01:45:33;96930.09;;;14.59;100.00
36190;BME280;22232;50.914;13.858;2023-08-06T01:48:01;96927.06;;;14.71;100.00
36190;BME280;22232;50.914;13.858;2023-08-06T01:50:29;96932.38;;;14.81;100.00
36190;BME280;22232;50.914;13.858;2023-08-06T01:52:57;96932.03;;;14.88;100.00
36190;BME280;22232;50.914;13.858;2023-08-06T01:55:26;96936.34;;;14.89;100.00
36190;BME280;22232;50.914;13.858;2023-08-06T01:57:54;96932.31;;;14.91;100.00
36190;BME280;22232;50.914;13.858;2023-08-06T02:00:22;96936.59;;;14.93;100.00
36190;BME280;22232;50.914;13.858;2023-08-06T02:02:51;96938.47;;;14.92;100.00
36190;BME280;22232;50.914;13.858;2023-08-06T02:05:18;96946.00;;;14.90;100.00
36190;BME280;22232;50.914;13.858;2023-08-06T02:07:46;96960.75;;;14.93;100.00
36190;BME280;22232;50.914;13.858;2023-08-06T02:10:14;96957.53;;;14.90;100.00
36190;BME280;22232;50.914;13.858;2023-08-06T02:12:42;96956.19;;;14.93;100.00
36190;BME280;22232;50.914;13.858;2023-08-06T02:15:09;96948.13;;;14.93;100.00
36190;BME280;22232;50.914;13.858;2023-08-06T02:17:38;96938.97;;;14.94;100.00
36190;BME280;22232;50.914;13.858;2023-08-06T02:20:06;96930.66;;;14.96;100.00
36190;BME280;22232;50.914;13.858;2023-08-06T02:22:34;96936.81;;;15.01;100.00
36190;BME280;22232;50.914;13.858;2023-08-06T02:25:02;96925.25;;;15.01;100.00
36190;BME280;22232;50.914;13.858;2023-08-06T02:27:29;96923.06;;;15.03;100.00
36190;BME280;22232;50.914;13.858;2023-08-06T02:29:57;96915.78;;;15.08;100.00
36190;BME280;22232;50.914;13.858;2023-08-06T02:32:25;96909.38;;;15.04;100.00
36190;BME280;22232;50.914;13.858;2023-08-06T02:34:53;96912.91;;;15.00;100.00
36190;BME280;22232;50.914;13.858;2023-08-06T02:37:21;96915.09;;;14.98;100.00
36190;BME280;22232;50.914;13.858;2023-08-06T02:39:48;96909.44;;;14.94;100.00
36190;BME280;22232;50.914;13.858;2023-08-06T02:42:16;96906.25;;;14.92;100.00
36190;BME280;22232;50.914;13.858;2023-08-06T02:44:44;96897.44;;;14.86;100.00
36190;BME280;22232;50.914;13.858;2023-08-06T02:47:11;96898.56;;;14.80;100.00
36190;BME280;22232;50.914;13.858;2023-08-06T02:49:39;96895.59;;;14.82;100.00
36190;BME280;22232;50.914;13.858;2023-08-06T02:52:08;96899.03;;;14.87;100.00
36190;BME280;22232;50.914;13.858;2023-08-06T02:54:35;96894.44;;;14.93;100.00
36190;BME280;22232;50.914;13.858;2023-08-06T02:57:04;96895.44;;;15.02;100.00
36190;BME280;22232;50.914;13.858;2023-08-06T02:59:33;96892.53;;;14.94;100.00
36190;BME280;22232;50.914;13.858;2023-08-06T03:02:14;96890.63;;;14.99;100.00
36190;BME280;22232;50.914;13.858;2023-08-06T03:05:00;96884.16;;;15.00;100.00
36190;BME280;22232;50.914;13.858;2023-08-06T03:07:33;96885.03;;;14.96;100.00
36190;BME280;22232;50.914;13.858;2023-08-06T03:10:08;96879.69;;;14.90;100.00
36190;BME280;22232;50.914;13.858;2023-08-06T03:12:36;96877.56;;;14.87;100.00
36190;BME280;22232;50.914;13.858;2023-08-06T03:15:05;96878.66;;;14.86;100.00
36190;BME280;22232;50.914;13.858;2023-08-06T03:17:33;96874.53;;;14.94;100.00
36190;BME280;22232;50.914;13.858;2023-08-06T03:20:03;96875.38;;;14.95;100.00
36190;BME280;22232;50.914;13.858;2023-08-06T03:22:32;96870.50;;;14.97;100.00
36190;BME280;22232;50.914;13.858;2023-08-06T03:25:00;96875.63;;;14.93;100.00
36190;BME280;22232;50.914;13.858;2023-08-06T03:27:28;96865.22;;;14.86;100.00
36190;BME280;22232;50.914;13.858;2023-08-06T03:29:56;96867.91;;;14.86;100.00
36190;BME280;22232;50.914;13.858;2023-08-06T03:32:26;96863.88;;;14.89;100.00
36190;BME280;22232;50.914;13.858;2023-08-06T03:34:55;96852.78;;;14.96;100.00
36190;BME280;22232;50.914;13.858;2023-08-06T03:37:26;96854.13;;;14.98;100.00
36190;BME280;22232;50.914;13.858;2023-08-06T03:39:54;96853.25;;;15.03;100.00
36190;BME280;22232;50.914;13.858;2023-08-06T03:42:22;96846.06;;;14.98;100.00
36190;BME280;22232;50.914;13.858;2023-08-06T03:44:49;96843.66;;;14.97;100.00
36190;BME280;22232;50.914;13.858;2023-08-06T03:47:17;96843.41;;;14.93;100.00
36190;BME280;22232;50.914;13.858;2023-08-06T03:49:48;96839.63;;;14.94;100.00
36190;BME280;22232;50.914;13.858;2023-08-06T03:52:17;96841.81;;;14.92;100.00
36190;BME280;22232;50.914;13.858;2023-08-06T03:54:47;96835.66;;;14.91;100.00
36190;BME280;22232;50.914;13.858;2023-08-06T03:57:14;96830.03;;;14.88;100.00
36190;BME280;22232;50.914;13.858;2023-08-06T03:59:43;96830.28;;;14.91;100.00
36190;BME280;22232;50.914;13.858;2023-08-06T04:02:23;96829.75;;;14.89;100.00
36190;BME280;22232;50.914;13.858;2023-08-06T04:04:51;96828.16;;;14.88;100.00
36190;BME280;22232;50.914;13.858;2023-08-06T04:07:21;96819.56;;;14.91;100.00
36190;BME280;22232;50.914;13.858;2023-08-06T04:09:57;96819.56;;;14.91;100.00
36190;BME280;22232;50.914;13.858;2023-08-06T04:12:26;96815.25;;;14.90;100.00
36190;BME280;22232;50.914;13.858;2023-08-06T04:14:55;96811.97;;;14.99;100.00
36190;BME280;22232;50.914;13.858;2023-08-06T04:17:23;96804.44;;;15.01;100.00
36190;BME280;22232;50.914;13.858;2023-08-06T04:19:53;96802.31;;;14.98;100.00
36190;BME280;22232;50.914;13.858;2023-08-06T04:22:22;96789.16;;;14.96;100.00
36190;BME280;22232;50.914;13.858;2023-08-06T04:24:50;96787.84;;;14.94;100.00
36190;BME280;22232;50.914;13.858;2023-08-06T04:27:19;96791.59;;;14.93;100.00
36190;BME280;22232;50.914;13.858;2023-08-06T04:29:48;96798.06;;;14.91;100.00
36190;BME280;22232;50.914;13.858;2023-08-06T04:32:16;96786.56;;;14.86;100.00
36190;BME280;22232;50.914;13.858;2023-08-06T04:34:50;96784.69;;;14.86;100.00
36190;BME280;22232;50.914;13.858;2023-08-06T04:37:18;96787.91;;;14.88;100.00
36190;BME280;22232;50.914;13.858;2023-08-06T04:39:46;96787.38;;;14.86;100.00
36190;BME280;22232;50.914;13.858;2023-08-06T04:42:15;96786.81;;;14.89;100.00
36190;BME280;22232;50.914;13.858;2023-08-06T04:44:42;96781.44;;;14.89;100.00
36190;BME280;22232;50.914;13.858;2023-08-06T04:47:10;96777.09;;;14.94;100.00
36190;BME280;22232;50.914;13.858;2023-08-06T04:49:38;96773.84;;;14.97;100.00
36190;BME280;22232;50.914;13.858;2023-08-06T04:52:06;96777.06;;;14.99;100.00
36190;BME280;22232;50.914;13.858;2023-08-06T04:54:33;96771.91;;;15.02;100.00
36190;BME280;22232;50.914;13.858;2023-08-06T04:57:01;96763.28;;;15.05;100.00
36190;BME280;22232;50.914;13.858;2023-08-06T04:59:29;96767.84;;;15.05;100.00
36190;BME280;22232;50.914;13.858;2023-08-06T05:01:57;96758.47;;;15.02;100.00
36190;BME280;22232;50.914;13.858;2023-08-06T05:04:24;96759.00;;;15.04;100.00
36190;BME280;22232;50.914;13.858;2023-08-06T05:06:52;96764.03;;;15.11;100.00
36190;BME280;22232;50.914;13.858;2023-08-06T05:09:20;96757.88;;;15.10;100.00
36190;BME280;22232;50.914;13.858;2023-08-06T05:11:49;96757.50;;;15.17;100.00
36190;BME280;22232;50.914;13.858;2023-08-06T05:14:17;96766.09;;;15.19;100.00
36190;BME280;22232;50.914;13.858;2023-08-06T05:16:45;96765.81;;;15.21;100.00
36190;BME280;22232;50.914;13.858;2023-08-06T05:19:13;96761.97;;;15.27;100.00
36190;BME280;22232;50.914;13.858;2023-08-06T05:21:40;96755.81;;;15.26;100.00
36190;BME280;22232;50.914;13.858;2023-08-06T05:24:08;96748.84;;;15.25;100.00
36190;BME280;22232;50.914;13.858;2023-08-06T05:26:36;96754.72;;;15.27;100.00
36190;BME280;22232;50.914;13.858;2023-08-06T05:29:03;96742.03;;;15.33;100.00
36190;BME280;22232;50.914;13.858;2023-08-06T05:31:31;96734.53;;;15.30;100.00
36190;BME280;22232;50.914;13.858;2023-08-06T05:33:59;96734.19;;;15.36;100.00
36190;BME280;22232;50.914;13.858;2023-08-06T05:36:27;96732.59;;;15.35;100.00
36190;BME280;22232;50.914;13.858;2023-08-06T05:38:56;96730.13;;;15.39;100.00
36190;BME280;22232;50.914;13.858;2023-08-06T05:41:24;96728.53;;;15.38;100.00
36190;BME280;22232;50.914;13.858;2023-08-06T05:43:51;96722.81;;;15.45;100.00
36190;BME280;22232;50.914;13.858;2023-08-06T05:46:19;96729.50;;;15.47;100.00
36190;BME280;22232;50.914;13.858;2023-08-06T05:48:47;96732.69;;;15.49;100.00
36190;BME280;22232;50.914;13.858;2023-08-06T05:51:14;96725.13;;;15.51;100.00
36190;BME280;22232;50.914;13.858;2023-08-06T05:53:43;96723.19;;;15.57;100.00
36190;BME280;22232;50.914;13.858;2023-08-06T05:56:11;96734.38;;;15.64;100.00
36190;BME280;22232;50.914;13.858;2023-08-06T05:58:39;96735.69;;;15.67;100.00
36190;BME280;22232;50.914;13.858;2023-08-06T06:01:06;96728.72;;;15.66;100.00
36190;BME280;22232;50.914;13.858;2023-08-06T06:03:34;96737.56;;;15.66;100.00
36190;BME280;22232;50.914;13.858;2023-08-06T06:06:02;96734.38;;;15.64;100.00
36190;BME280;22232;50.914;13.858;2023-08-06T06:08:30;96730.56;;;15.70;100.00
36190;BME280;22232;50.914;13.858;2023-08-06T06:10:58;96735.66;;;15.72;100.00
36190;BME280;22232;50.914;13.858;2023-08-06T06:13:25;96739.34;;;15.76;100.00
36190;BME280;22232;50.914;13.858;2023-08-06T06:15:56;96735.59;;;15.77;100.00
36190;BME280;22232;50.914;13.858;2023-08-06T06:18:24;96737.19;;;15.78;100.00
36190;BME280;22232;50.914;13.858;2023-08-06T06:20:52;96736.81;;;15.85;100.00
36190;BME280;22232;50.914;13.858;2023-08-06T06:23:19;96731.66;;;15.88;100.00
36190;BME280;22232;50.914;13.858;2023-08-06T06:25:49;96725.69;;;15.91;100.00
36190;BME280;22232;50.914;13.858;2023-08-06T06:28:19;96723.44;;;15.98;100.00
36190;BME280;22232;50.914;13.858;2023-08-06T06:30:47;96725.03;;;15.99;100.00
36190;BME280;22232;50.914;13.858;2023-08-06T06:33:15;96722.56;;;16.03;100.00
36190;BME280;22232;50.914;13.858;2023-08-06T06:35:43;96721.75;;;16.02;100.00
36190;BME280;22232;50.914;13.858;2023-08-06T06:38:11;96722.13;;;16.15;100.00
36190;BME280;22232;50.914;13.858;2023-08-06T06:40:38;96729.38;;;16.14;100.00
36190;BME280;22232;50.914;13.858;2023-08-06T06:43:06;96732.88;;;16.15;100.00
36190;BME280;22232;50.914;13.858;2023-08-06T06:45:34;96727.13;;;16.21;100.00
36190;BME280;22232;50.914;13.858;2023-08-06T06:48:01;96725.66;;;16.29;100.00
36190;BME280;22232;50.914;13.858;2023-08-06T06:50:29;96728.75;;;16.36;100.00
36190;BME280;22232;50.914;13.858;2023-08-06T06:52:57;96732.03;;;16.33;100.00
36190;BME280;22232;50.914;13.858;2023-08-06T06:55:24;96734.22;;;16.31;100.00
36190;BME280;22232;50.914;13.858;2023-08-06T06:57:52;96730.38;;;16.37;100.00
36190;BME280;22232;50.914;13.858;2023-08-06T07:00:20;96731.19;;;16.38;100.00
36190;BME280;22232;50.914;13.858;2023-08-06T07:02:47;96738.78;;;16.49;100.00
36190;BME280;22232;50.914;13.858;2023-08-06T07:05:15;96736.31;;;16.53;100.00
36190;BME280;22232;50.914;13.858;2023-08-06T07:07:43;96732.72;;;16.58;100.00
36190;BME280;22232;50.914;13.858;2023-08-06T07:10:11;96742.03;;;16.65;100.00
36190;BME280;22232;50.914;13.858;2023-08-06T07:12:38;96735.03;;;16.64;100.00
36190;BME280;22232;50.914;13.858;2023-08-06T07:15:07;96740.13;;;16.66;100.00
36190;BME280;22232;50.914;13.858;2023-08-06T07:17:34;96746.44;;;16.75;100.00
36190;BME280;22232;50.914;13.858;2023-08-06T07:20:02;96738.78;;;16.82;100.00
36190;BME280;22232;50.914;13.858;2023-08-06T07:22:30;96739.09;;;16.81;100.00
36190;BME280;22232;50.914;13.858;2023-08-06T07:24:58;96737.00;;;16.91;100.00
36190;BME280;22232;50.914;13.858;2023-08-06T07:27:25;96737.91;;;16.87;100.00
36190;BME280;22232;50.914;13.858;2023-08-06T07:29:53;96734.63;;;16.90;100.00
36190;BME280;22232;50.914;13.858;2023-08-06T07:32:21;96728.31;;;16.81;100.00
36190;BME280;22232;50.914;13.858;2023-08-06T07:34:49;96732.19;;;16.88;100.00
36190;BME280;22232;50.914;13.858;2023-08-06T07:37:16;96723.94;;;16.85;100.00
36190;BME280;22232;50.914;13.858;2023-08-06T07:39:44;96726.41;;;16.81;100.00
36190;BME280;22232;50.914;13.858;2023-08-06T07:42:12;96723.94;;;16.85;100.00
36190;BME280;22232;50.914;13.858;2023-08-06T07:44:39;96724.31;;;16.92;100.00
36190;BME280;22232;50.914;13.858;2023-08-06T07:47:07;96723.25;;;16.93;100.00
36190;BME280;22232;50.914;13.858;2023-08-06T07:49:36;96721.25;;;16.99;100.00
36190;BME280;22232;50.914;13.858;2023-08-06T07:52:04;96718.25;;;16.86;100.00
36190;BME280;22232;50.914;13.858;2023-08-06T07:54:32;96726.94;;;16.97;100.00
36190;BME280;22232;50.914;13.858;2023-08-06T07:57:00;96719.94;;;17.10;100.00
36190;BME280;22232;50.914;13.858;2023-08-06T07:59:28;96726.47;;;17.23;100.00
36190;BME280;22232;50.914;13.858;2023-08-06T08:01:55;96724.25;;;17.25;100.00
36190;BME280;22232;50.914;13.858;2023-08-06T08:04:23;96721.06;;;17.23;100.00
36190;BME280;22232;50.914;13.858;2023-08-06T08:06:51;96725.25;;;17.01;100.00
36190;BME280;22232;50.914;13.858;2023-08-06T08:09:19;96722.44;;;17.06;100.00
36190;BME280;22232;50.914;13.858;2023-08-06T08:11:47;96717.97;;;17.15;100.00
36190;BME280;22232;50.914;13.858;2023-08-06T08:14:14;96709.97;;;17.24;100.00
36190;BME280;22232;50.914;13.858;2023-08-06T08:16:42;96699.50;;;17.23;100.00
36190;BME280;22232;50.914;13.858;2023-08-06T08:19:10;96709.28;;;17.32;100.00
36190;BME280;22232;50.914;13.858;2023-08-06T08:21:38;96698.38;;;17.37;100.00
36190;BME280;22232;50.914;13.858;2023-08-06T08:24:05;96696.97;;;17.40;100.00
36190;BME280;22232;50.914;13.858;2023-08-06T08:26:33;96695.06;;;17.40;100.00
36190;BME280;22232;50.914;13.858;2023-08-06T08:29:01;96696.22;;;17.12;100.00
36190;BME280;22232;50.914;13.858;2023-08-06T08:31:29;96694.22;;;16.90;100.00
36190;BME280;22232;50.914;13.858;2023-08-06T08:33:57;96695.06;;;16.71;100.00
36190;BME280;22232;50.914;13.858;2023-08-06T08:36:26;96691.94;;;16.64;100.00
36190;BME280;22232;50.914;13.858;2023-08-06T08:38:54;96682.69;;;16.70;100.00
36190;BME280;22232;50.914;13.858;2023-08-06T08:41:22;96687.00;;;16.85;100.00
36190;BME280;22232;50.914;13.858;2023-08-06T08:43:50;96682.66;;;16.89;100.00
36190;BME280;22232;50.914;13.858;2023-08-06T08:46:19;96681.75;;;16.94;100.00
36190;BME280;22232;50.914;13.858;2023-08-06T08:48:47;96674.97;;;16.96;100.00
36190;BME280;22232;50.914;13.858;2023-08-06T08:51:16;96674.75;;;16.93;100.00
36190;BME280;22232;50.914;13.858;2023-08-06T08:53:46;96677.16;;;16.94;100.00
36190;BME280;22232;50.914;13.858;2023-08-06T08:56:14;96662.47;;;17.01;100.00
36190;BME280;22232;50.914;13.858;2023-08-06T08:58:43;96664.28;;;17.05;100.00
36190;BME280;22232;50.914;13.858;2023-08-06T09:01:11;96662.50;;;17.14;100.00
36190;BME280;22232;50.914;13.858;2023-08-06T09:03:39;96665.75;;;17.25;100.00
36190;BME280;22232;50.914;13.858;2023-08-06T09:06:08;96663.19;;;17.20;100.00
36190;BME280;22232;50.914;13.858;2023-08-06T09:08:43;96663.16;;;17.34;100.00
36190;BME280;22232;50.914;13.858;2023-08-06T09:11:14;96664.06;;;17.29;100.00
36190;BME280;22232;50.914;13.858;2023-08-06T09:13:43;96669.41;;;17.43;100.00
36190;BME280;22232;50.914;13.858;2023-08-06T09:16:11;96665.56;;;17.35;100.00
36190;BME280;22232;50.914;13.858;2023-08-06T09:18:39;96668.66;;;17.29;100.00
36190;BME280;22232;50.914;13.858;2023-08-06T09:21:13;96663.28;;;17.15;100.00
36190;BME280;22232;50.914;13.858;2023-08-06T09:23:42;96663.47;;;17.18;100.00
36190;BME280;22232;50.914;13.858;2023-08-06T09:26:13;96658.81;;;17.10;100.00
36190;BME280;22232;50.914;13.858;2023-08-06T09:28:43;96663.56;;;16.86;100.00
36190;BME280;22232;50.914;13.858;2023-08-06T09:31:11;96657.19;;;16.82;100.00
36190;BME280;22232;50.914;13.858;2023-08-06T09:33:39;96669.34;;;16.79;100.00
36190;BME280;22232;50.914;13.858;2023-08-06T09:36:10;96668.06;;;16.77;100.00
36190;BME280;22232;50.914;13.858;2023-08-06T09:38:39;96662.78;;;16.85;100.00
36190;BME280;22232;50.914;13.858;2023-08-06T09:41:08;96654.63;;;17.04;100.00
36190;BME280;22232;50.914;13.858;2023-08-06T09:43:42;96651.50;;;17.11;100.00
36190;BME280;22232;50.914;13.858;2023-08-06T09:46:12;96649.81;;;17.29;100.00
36190;BME280;22232;50.914;13.858;2023-08-06T09:48:40;96653.75;;;17.31;100.00
36190;BME280;22232;50.914;13.858;2023-08-06T09:51:09;96650.88;;;17.28;100.00
36190;BME280;22232;50.914;13.858;2023-08-06T09:53:37;96643.47;;;17.47;100.00
36190;BME280;22232;50.914;13.858;2023-08-06T09:56:06;96646.34;;;17.51;100.00
36190;BME280;22232;50.914;13.858;2023-08-06T09:58:34;96641.69;;;17.65;100.00
36190;BME280;22232;50.914;13.858;2023-08-06T10:01:02;96641.41;;;17.66;100.00
36190;BME280;22232;50.914;13.858;2023-08-06T10:03:30;96634.91;;;17.81;100.00
36190;BME280;22232;50.914;13.858;2023-08-06T10:05:59;96625.69;;;17.82;100.00
36190;BME280;22232;50.914;13.858;2023-08-06T10:08:30;96636.00;;;17.80;100.00
36190;BME280;22232;50.914;13.858;2023-08-06T10:10:58;96632.41;;;17.71;100.00
36190;BME280;22232;50.914;13.858;2023-08-06T10:13:26;96628.28;;;17.74;100.00
36190;BME280;22232;50.914;13.858;2023-08-06T10:15:54;96624.63;;;17.70;100.00
36190;BME280;22232;50.914;13.858;2023-08-06T10:18:22;96624.78;;;17.87;100.00
36190;BME280;22232;50.914;13.858;2023-08-06T10:20:50;96624.78;;;17.87;100.00
36190;BME280;22232;50.914;13.858;2023-08-06T10:23:18;96623.50;;;17.84;100.00
36190;BME280;22232;50.914;13.858;2023-08-06T10:25:53;96615.06;;;17.77;100.00
36190;BME280;22232;50.914;13.858;2023-08-06T10:28:33;96616.78;;;17.59;100.00
36190;BME280;22232;50.914;13.858;2023-08-06T10:31:02;96616.69;;;17.51;100.00
36190;BME280;22232;50.914;13.858;2023-08-06T10:33:41;96608.38;;;17.61;100.00
36190;BME280;22232;50.914;13.858;2023-08-06T10:36:10;96607.94;;;17.67;100.00
36190;BME280;22232;50.914;13.858;2023-08-06T10:38:49;96599.13;;;17.76;100.00
36190;BME280;22232;50.914;13.858;2023-08-06T10:41:28;96599.28;;;17.93;100.00
36190;BME280;22232;50.914;13.858;2023-08-06T10:44:06;96594.25;;;18.00;100.00
36190;BME280;22232;50.914;13.858;2023-08-06T10:46:37;96599.63;;;18.00;100.00
36190;BME280;22232;50.914;13.858;2023-08-06T10:49:05;96599.53;;;18.05;100.00
36190;BME280;22232;50.914;13.858;2023-08-06T10:51:35;96595.59;;;18.11;100.00
36190;BME280;22232;50.914;13.858;2023-08-06T10:54:04;96584.97;;;18.15;100.00
36190;BME280;22232;50.914;13.858;2023-08-06T10:56:39;96585.69;;;18.29;100.00
36190;BME280;22232;50.914;13.858;2023-08-06T10:59:08;96580.72;;;18.54;100.00
36190;BME280;22232;50.914;13.858;2023-08-06T11:01:38;96574.88;;;18.69;100.00
36190;BME280;22232;50.914;13.858;2023-08-06T11:04:06;96571.31;;;18.91;100.00
36190;BME280;22232;50.914;13.858;2023-08-06T11:06:34;96565.25;;;18.86;100.00
36190;BME280;22232;50.914;13.858;2023-08-06T11:09:01;96570.03;;;18.89;100.00
36190;BME280;22232;50.914;13.858;2023-08-06T11:11:29;96564.31;;;18.82;100.00
36190;BME280;22232;50.914;13.858;2023-08-06T11:13:57;96562.75;;;18.98;100.00
36190;BME280;22232;50.914;13.858;2023-08-06T11:16:25;96565.47;;;19.07;100.00
36190;BME280;22232;50.914;13.858;2023-08-06T11:18:53;96557.81;;;19.00;100.00
36190;BME280;22232;50.914;13.858;2023-08-06T11:21:22;96559.56;;;18.96;100.00
36190;BME280;22232;50.914;13.858;2023-08-06T11:23:53;96559.72;;;18.91;100.00
36190;BME280;22232;50.914;13.858;2023-08-06T11:26:22;96558.63;;;19.00;100.00
36190;BME280;22232;50.914;13.858;2023-08-06T11:28:51;96551.28;;;18.92;100.00
36190;BME280;22232;50.914;13.858;2023-08-06T11:31:22;96551.78;;;19.03;100.00
36190;BME280;22232;50.914;13.858;2023-08-06T11:33:51;96561.03;;;19.02;100.00
36190;BME280;22232;50.914;13.858;2023-08-06T11:38:59;96563.41;;;19.21;100.00
36190;BME280;22232;50.914;13.858;2023-08-06T11:41:29;96556.56;;;19.15;100.00
36190;BME280;22232;50.914;13.858;2023-08-06T11:44:00;96552.13;;;19.36;100.00
36190;BME280;22232;50.914;13.858;2023-08-06T11:46:29;96557.84;;;19.26;100.00
36190;BME280;22232;50.914;13.858;2023-08-06T11:48:58;96553.09;;;19.40;100.00
36190;BME280;22232;50.914;13.858;2023-08-06T11:51:26;96553.72;;;19.29;100.00
36190;BME280;22232;50.914;13.858;2023-08-06T11:53:58;96552.91;;;19.02;100.00
36190;BME280;22232;50.914;13.858;2023-08-06T11:56:27;96555.59;;;18.93;100.00
36190;BME280;22232;50.914;13.858;2023-08-06T11:58:55;96555.78;;;19.06;100.00
36190;BME280;22232;50.914;13.858;2023-08-06T12:01:23;96552.69;;;18.90;100.00
36190;BME280;22232;50.914;13.858;2023-08-06T12:03:52;96560.94;;;18.76;100.00
36190;BME280;22232;50.914;13.858;2023-08-06T12:06:20;96554.06;;;18.70;100.00
36190;BME280;22232;50.914;13.858;2023-08-06T12:08:48;96559.84;;;18.86;100.00
36190;BME280;22232;50.914;13.858;2023-08-06T12:11:21;96553.97;;;18.92;100.00
36190;BME280;22232;50.914;13.858;2023-08-06T12:13:52;96546.06;;;19.05;100.00
36190;BME280;22232;50.914;13.858;2023-08-06T12:16:19;96550.84;;;19.16;100.00
36190;BME280;22232;50.914;13.858;2023-08-06T12:18:49;96547.50;;;19.19;100.00
36190;BME280;22232;50.914;13.858;2023-08-06T12:21:16;96551.63;;;19.17;100.00
36190;BME280;22232;50.914;13.858;2023-08-06T12:23:44;96552.91;;;19.11;100.00
36190;BME280;22232;50.914;13.858;2023-08-06T12:26:12;96549.56;;;18.96;100.00
36190;BME280;22232;50.914;13.858;2023-08-06T12:28:39;96551.31;;;19.10;100.00
36190;BME280;22232;50.914;13.858;2023-08-06T12:31:07;96545.75;;;18.97;100.00
36190;BME280;22232;50.914;13.858;2023-08-06T12:33:35;96549.88;;;18.95;100.00
36190;BME280;22232;50.914;13.858;2023-08-06T12:36:03;96542.88;;;19.20;100.00
36190;BME280;22232;50.914;13.858;2023-08-06T12:38:31;96546.09;;;19.39;100.00
36190;BME280;22232;50.914;13.858;2023-08-06T12:41:01;96542.91;;;19.37;100.00
36190;BME280;22232;50.914;13.858;2023-08-06T12:43:29;96544.03;;;19.36;100.00
36190;BME280;22232;50.914;13.858;2023-08-06T12:45:57;96540.69;;;19.48;100.00
36190;BME280;22232;50.914;13.858;2023-08-06T12:48:25;96545.00;;;19.66;100.00
36190;BME280;22232;50.914;13.858;2023-08-06T12:50:52;96538.59;;;19.80;100.00
36190;BME280;22232;50.914;13.858;2023-08-06T12:53:20;96537.94;;;19.91;100.00
36190;BME280;22232;50.914;13.858;2023-08-06T12:55:49;96534.88;;;20.10;100.00
36190;BME280;22232;50.914;13.858;2023-08-06T12:58:17;96538.63;;;19.45;100.00
36190;BME280;22232;50.914;13.858;2023-08-06T13:00:44;96535.88;;;19.62;100.00